Terminal Aerodrome Forecast
Issued by NWS

Home | Current Version | Previous Version | Graphics & Text | Print | Product List | Glossary On
Versions: 1 2 3 4 5 6 7 8 9 10 11 12 13 14 15 16 17 18 19
000
FTUS41 KCLE 231600 AAB
TAFFDY
TAF AMD
KFDY 231605Z 2316/2412 36008KT P6SM SCT025
     FM232200 02008KT P6SM SCT250
     FM240200 VRB03KT P6SM SCT100 BKN250=

USA.gov is the U.S. government's official web portal to all federal, state and local government web resources and services.